Time;durP1;ratioP1;P1;durP2;ratioP2;P2;SDS_P1;SDS_P2;PMS_P1;PMS_P2;Temp;Humidity;BMP_temperature;BMP_pressure;BME280_temperature;BME280_humidity;BME280_pressure;Samples;Min_cycle;Max_cycle;Signal;HPM_P1;HPM_P2
2023/09/25 00:02:17;;;;;;;4.28;1.83;;;12.30;99.90;;;;;;5023857;28;20029;-59
2023/09/25 00:04:43;;;;;;;4.57;1.83;;;12.30;99.90;;;;;;5020088;28;20117;-58
2023/09/25 00:07:09;;;;;;;5.30;1.83;;;12.30;99.90;;;;;;5014280;28;20026;-59
2023/09/25 00:09:34;;;;;;;9.57;1.77;;;12.20;99.90;;;;;;5020417;28;20054;-60
2023/09/25 00:12:00;;;;;;;3.90;1.67;;;12.20;99.90;;;;;;5017251;28;20442;-58
2023/09/25 00:14:25;;;;;;;2.65;1.70;;;12.20;99.90;;;;;;5019983;28;20485;-58
2023/09/25 00:16:51;;;;;;;4.18;1.92;;;12.20;99.90;;;;;;5024667;28;20038;-59
2023/09/25 00:19:16;;;;;;;4.32;1.80;;;12.20;99.90;;;;;;5021435;28;20484;-60
2023/09/25 00:21:43;;;;;;;4.93;1.73;;;12.20;99.90;;;;;;5021000;28;20034;-55
2023/09/25 00:24:08;;;;;;;3.08;1.70;;;12.20;99.90;;;;;;5024205;28;20025;-60
2023/09/25 00:26:34;;;;;;;3.00;1.90;;;12.20;99.90;;;;;;5018162;28;20048;-60
2023/09/25 00:28:59;;;;;;;3.25;1.73;;;12.20;99.90;;;;;;5028314;28;20553;-57
2023/09/25 00:31:25;;;;;;;4.45;1.83;;;12.20;99.90;;;;;;5021715;28;20146;-58
2023/09/25 00:33:50;;;;;;;6.65;2.20;;;12.20;99.90;;;;;;5021694;28;20034;-60
2023/09/25 00:36:16;;;;;;;5.50;2.25;;;12.20;99.90;;;;;;5022191;28;20036;-58
2023/09/25 00:38:42;;;;;;;4.50;1.70;;;12.20;99.90;;;;;;5016863;28;20084;-56
2023/09/25 00:41:08;;;;;;;4.22;1.75;;;12.20;99.90;;;;;;5017173;28;20026;-59
2023/09/25 00:43:33;;;;;;;6.43;1.92;;;12.20;99.90;;;;;;5021657;28;20045;-60
2023/09/25 00:45:59;;;;;;;4.32;1.98;;;12.20;99.90;;;;;;5021816;28;20487;-60
2023/09/25 00:48:29;;;;;;;2.70;1.73;;;12.20;99.90;;;;;;5017495;28;20081;-54
2023/09/25 00:50:57;;;;;;;3.35;1.63;;;12.20;99.90;;;;;;5023194;28;20079;-60
2023/09/25 00:53:26;;;;;;;5.10;1.95;;;12.20;99.90;;;;;;5012794;28;20427;-55
2023/09/25 00:55:53;;;;;;;4.00;1.98;;;12.10;99.90;;;;;;5019191;28;20496;-58
2023/09/25 00:58:19;;;;;;;4.88;1.83;;;12.20;99.90;;;;;;5016161;28;20029;-59
2023/09/25 01:00:46;;;;;;;4.57;1.90;;;12.20;99.90;;;;;;5014878;28;20045;-58
2023/09/25 01:03:12;;;;;;;2.92;1.60;;;12.10;99.90;;;;;;5017375;28;20032;-57
2023/09/25 01:05:39;;;;;;;5.07;1.98;;;12.20;99.90;;;;;;5019350;28;20030;-60
2023/09/25 01:08:06;;;;;;;5.40;1.63;;;;;;;;;;5017545;28;20033;-58
2023/09/25 01:10:32;;;;;;;4.07;1.75;;;12.10;99.90;;;;;;5018975;28;20021;-59
2023/09/25 01:12:59;;;;;;;2.83;2.40;;;12.10;99.90;;;;;;5018482;28;20022;-58
2023/09/25 01:15:25;;;;;;;8.85;1.90;;;12.10;99.90;;;;;;5014782;28;20045;-58
2023/09/25 01:17:51;;;;;;;3.17;2.20;;;12.10;99.90;;;;;;5015041;28;20069;-58
2023/09/25 01:20:17;;;;;;;2.28;1.60;;;12.10;99.90;;;;;;5017143;28;20361;-58
2023/09/25 01:22:48;;;;;;;6.10;2.08;;;12.10;99.90;;;;;;5019950;28;20029;-55
2023/09/25 01:25:15;;;;;;;6.00;1.98;;;12.10;99.90;;;;;;5022256;28;20072;-54
2023/09/25 01:27:42;;;;;;;4.55;2.38;;;12.10;99.90;;;;;;5019531;28;20491;-56
2023/09/25 01:30:09;;;;;;;6.78;1.90;;;12.00;99.90;;;;;;5019610;28;20033;-57
2023/09/25 01:32:38;;;;;;;3.80;1.73;;;12.00;99.90;;;;;;5020847;28;20037;-59
2023/09/25 01:35:12;;;;;;;4.75;1.90;;;12.00;99.90;;;;;;5020047;28;20030;-58
2023/09/25 01:37:37;;;;;;;2.30;2.00;;;11.90;99.90;;;;;;5014225;28;20075;-60
2023/09/25 01:40:05;;;;;;;3.08;1.80;;;11.90;99.90;;;;;;5016568;28;20038;-60
2023/09/25 01:42:30;;;;;;;2.45;1.80;;;11.90;99.90;;;;;;5020532;28;20021;-57
2023/09/25 01:44:56;;;;;;;4.78;2.20;;;11.80;99.90;;;;;;5015502;28;20128;-57
2023/09/25 01:47:21;;;;;;;4.57;2.10;;;11.80;99.90;;;;;;5017157;28;20034;-60
2023/09/25 01:49:47;;;;;;;9.73;2.17;;;11.80;99.90;;;;;;5022220;28;20590;-60
2023/09/25 01:52:14;;;;;;;3.47;1.77;;;11.80;99.90;;;;;;5019150;28;20079;-57
2023/09/25 01:54:39;;;;;;;2.45;1.70;;;11.70;99.90;;;;;;5020505;28;20032;-58
2023/09/25 01:57:05;;;;;;;4.13;2.10;;;11.70;99.90;;;;;;5021168;28;20030;-59
2023/09/25 01:59:31;;;;;;;7.70;2.15;;;11.70;99.90;;;;;;5013851;28;20396;-60
2023/09/25 02:01:57;;;;;;;4.07;1.92;;;11.70;99.90;;;;;;5019636;28;20033;-59
2023/09/25 02:04:23;;;;;;;2.63;1.67;;;11.70;99.90;;;;;;5012639;28;20408;-58
2023/09/25 02:06:48;;;;;;;2.65;1.63;;;11.60;99.90;;;;;;5015807;28;20048;-60
2023/09/25 02:09:14;;;;;;;3.25;2.28;;;11.70;99.90;;;;;;5017090;28;20161;-57
2023/09/25 02:11:39;;;;;;;4.85;1.95;;;11.70;99.90;;;;;;5022821;28;20030;-57
2023/09/25 02:14:05;;;;;;;2.80;1.92;;;11.60;99.90;;;;;;5018645;28;20032;-57
2023/09/25 02:16:30;;;;;;;3.78;1.65;;;11.70;99.90;;;;;;5024589;28;20411;-59
2023/09/25 02:18:56;;;;;;;3.65;1.67;;;11.70;99.90;;;;;;5028612;28;20127;-58
2023/09/25 02:21:22;;;;;;;6.13;1.92;;;11.60;99.90;;;;;;5019814;28;20036;-56
2023/09/25 02:23:48;;;;;;;3.92;1.80;;;11.60;99.90;;;;;;5015181;28;20025;-60
2023/09/25 02:26:13;;;;;;;3.38;1.75;;;11.60;99.90;;;;;;5017406;28;20038;-58
2023/09/25 02:28:39;;;;;;;4.30;2.05;;;11.60;99.90;;;;;;5021219;28;20032;-58
2023/09/25 02:31:04;;;;;;;2.58;1.58;;;11.50;99.90;;;;;;5020696;28;20056;-60
2023/09/25 02:33:30;;;;;;;4.20;1.95;;;11.50;99.90;;;;;;5017250;28;20472;-57
2023/09/25 02:36:06;;;;;;;4.85;1.92;;;11.50;99.90;;;;;;5021379;28;20025;-56
2023/09/25 02:38:31;;;;;;;5.97;2.20;;;11.40;99.90;;;;;;5015205;28;20032;-58
2023/09/25 02:40:57;;;;;;;4.53;2.03;;;11.40;99.90;;;;;;5024269;28;20096;-59
2023/09/25 02:43:23;;;;;;;6.25;1.85;;;11.40;99.90;;;;;;5015447;28;20124;-57
2023/09/25 02:45:48;;;;;;;3.35;2.00;;;11.40;99.90;;;;;;5011608;28;20013;-59
2023/09/25 02:48:14;;;;;;;3.75;2.00;;;11.40;99.90;;;;;;5014688;28;20045;-53
2023/09/25 02:50:39;;;;;;;2.28;1.63;;;11.30;99.90;;;;;;5028501;28;20433;-57
2023/09/25 02:53:05;;;;;;;2.20;2.00;;;11.30;99.90;;;;;;5020252;28;20083;-59
2023/09/25 02:55:30;;;;;;;3.22;2.10;;;11.30;99.90;;;;;;5019110;28;20419;-57
2023/09/25 02:57:56;;;;;;;3.30;1.95;;;11.30;99.90;;;;;;5019804;28;20083;-53
2023/09/25 03:00:22;;;;;;;3.88;2.00;;;11.30;99.90;;;;;;5014929;28;20042;-57
2023/09/25 03:02:47;;;;;;;4.05;1.98;;;11.30;99.90;;;;;;5015624;28;20033;-58
2023/09/25 03:05:14;;;;;;;4.20;2.10;;;11.20;99.90;;;;;;5018154;28;20034;-58
2023/09/25 03:07:40;;;;;;;6.30;2.40;;;11.20;99.90;;;;;;5025051;28;20368;-56
2023/09/25 03:10:07;;;;;;;6.18;2.58;;;11.20;99.90;;;;;;5019229;28;20104;-60
2023/09/25 03:12:32;;;;;;;5.57;2.33;;;11.10;99.90;;;;;;5014450;28;20137;-60
2023/09/25 03:14:58;;;;;;;3.97;2.17;;;11.10;99.90;;;;;;5017274;28;20495;-57
2023/09/25 03:17:24;;;;;;;7.03;2.50;;;11.00;99.90;;;;;;5019814;28;20496;-56
2023/09/25 03:19:52;;;;;;;5.90;1.95;;;11.00;99.90;;;;;;5015881;28;20125;-57
2023/09/25 03:22:18;;;;;;;3.63;2.03;;;10.90;99.90;;;;;;5026242;28;20037;-58
2023/09/25 03:24:44;;;;;;;2.95;2.10;;;10.90;99.90;;;;;;5013351;28;20098;-57
2023/09/25 03:27:09;;;;;;;4.10;2.33;;;10.90;99.90;;;;;;5023799;28;20460;-57
2023/09/25 03:29:35;;;;;;;2.90;2.30;;;10.80;99.90;;;;;;5013044;28;20026;-59
2023/09/25 03:32:01;;;;;;;4.38;2.70;;;10.80;99.90;;;;;;5021338;28;20117;-57
2023/09/25 03:34:26;;;;;;;2.28;2.08;;;10.80;99.90;;;;;;5028198;28;20049;-56
2023/09/25 03:36:52;;;;;;;6.15;3.03;;;10.80;99.90;;;;;;5017308;28;20392;-55
2023/09/25 03:39:17;;;;;;;4.60;2.53;;;10.70;99.90;;;;;;5020423;28;20038;-59
2023/09/25 03:41:43;;;;;;;2.72;1.95;;;10.70;99.90;;;;;;5024108;28;20036;-58
2023/09/25 03:44:08;;;;;;;4.97;1.95;;;10.60;99.90;;;;;;5032082;28;20083;-57
2023/09/25 03:46:34;;;;;;;9.10;1.95;;;10.60;99.90;;;;;;5023269;28;20033;-59
2023/09/25 03:49:05;;;;;;;3.63;2.28;;;10.50;99.90;;;;;;5028265;28;20030;-58
2023/09/25 03:51:35;;;;;;;9.05;2.65;;;10.40;99.90;;;;;;5018748;28;20492;-58
2023/09/25 03:54:01;;;;;;;6.32;2.63;;;10.40;99.90;;;;;;5023169;28;20036;-60
2023/09/25 03:56:29;;;;;;;3.72;2.40;;;10.40;99.90;;;;;;5020601;28;20030;-60
2023/09/25 03:58:55;;;;;;;3.63;2.22;;;10.30;99.90;;;;;;5026117;28;20117;-60
2023/09/25 04:01:21;;;;;;;6.47;2.53;;;10.30;99.90;;;;;;5025046;28;20026;-60
2023/09/25 04:03:46;;;;;;;3.63;2.47;;;10.30;99.90;;;;;;5020496;28;20045;-60
2023/09/25 04:06:12;;;;;;;6.00;2.63;;;10.30;99.90;;;;;;5021816;28;20542;-57
2023/09/25 04:08:38;;;;;;;4.32;2.15;;;10.40;99.90;;;;;;5035255;28;20029;-55
2023/09/25 04:11:03;;;;;;;4.15;2.40;;;10.40;99.90;;;;;;5021034;28;20029;-56
2023/09/25 04:13:29;;;;;;;5.53;2.42;;;10.40;99.90;;;;;;5024688;28;20030;-59
2023/09/25 04:15:55;;;;;;;10.05;3.03;;;10.40;99.90;;;;;;5023642;28;20782;-60
2023/09/25 04:18:21;;;;;;;5.15;2.58;;;10.40;99.90;;;;;;5020400;28;21081;-59
2023/09/25 04:20:47;;;;;;;6.85;2.75;;;10.30;99.90;;;;;;5019587;28;20486;-59
2023/09/25 04:23:13;;;;;;;8.30;2.53;;;10.20;99.90;;;;;;5027889;28;20056;-56
2023/09/25 04:25:39;;;;;;;4.57;2.45;;;10.20;99.90;;;;;;5015962;28;20513;-54
2023/09/25 04:28:05;;;;;;;8.13;2.65;;;10.10;99.90;;;;;;5019497;28;20109;-59
2023/09/25 04:30:32;;;;;;;5.50;2.90;;;10.10;99.90;;;;;;5014983;28;20352;-58
2023/09/25 04:32:57;;;;;;;5.88;2.83;;;10.10;99.90;;;;;;5014236;28;20026;-59
2023/09/25 04:35:23;;;;;;;6.80;2.53;;;10.20;99.90;;;;;;5013876;28;20034;-59
2023/09/25 04:37:49;;;;;;;4.80;2.50;;;10.20;99.90;;;;;;5020116;28;20064;-58
2023/09/25 04:42:46;;;;;;;6.20;3.03;;;10.10;99.90;;;;;;5019822;28;20492;-60
2023/09/25 04:45:13;;;;;;;5.47;2.63;;;10.10;99.90;;;;;;5021536;28;20033;-60
2023/09/25 04:47:42;;;;;;;5.30;3.00;;;10.00;99.90;;;;;;5027669;28;20463;-60
2023/09/25 04:50:09;;;;;;;7.22;3.10;;;10.00;99.90;;;;;;5019358;28;22212;-59
2023/09/25 04:52:36;;;;;;;4.95;3.03;;;10.00;99.90;;;;;;5020271;28;20592;-59
2023/09/25 04:55:10;;;;;;;8.50;2.95;;;10.00;99.90;;;;;;5021540;28;20040;-58
2023/09/25 04:57:37;;;;;;;7.20;2.78;;;9.90;99.90;;;;;;5013378;28;20511;-58
2023/09/25 05:00:24;;;;;;;7.25;3.33;;;9.90;99.90;;;;;;5025474;28;20121;-59
2023/09/25 05:02:51;;;;;;;6.68;3.03;;;10.00;99.90;;;;;;5017902;28;20034;-59
2023/09/25 05:05:17;;;;;;;4.13;2.78;;;9.90;99.90;;;;;;5021985;28;20139;-59
2023/09/25 05:07:44;;;;;;;6.40;3.13;;;9.90;99.90;;;;;;5031655;28;20498;-58
2023/09/25 05:10:11;;;;;;;12.15;3.53;;;9.90;99.90;;;;;;5022104;28;20032;-54
2023/09/25 05:12:39;;;;;;;6.97;2.90;;;9.90;99.90;;;;;;5030156;28;20033;-59
2023/09/25 05:15:07;;;;;;;4.95;3.40;;;9.90;99.90;;;;;;5015093;28;20033;-59
2023/09/25 05:17:36;;;;;;;5.25;3.20;;;9.80;99.90;;;;;;5021432;28;20498;-56
2023/09/25 05:20:15;;;;;;;8.50;2.95;;;9.80;99.90;;;;;;5015707;28;20036;-59
2023/09/25 05:22:44;;;;;;;5.40;3.17;;;9.90;99.90;;;;;;5016738;28;20041;-59
2023/09/25 05:25:11;;;;;;;5.90;2.35;;;9.80;99.90;;;;;;5012355;28;20033;-55
2023/09/25 05:27:38;;;;;;;10.45;3.90;;;9.90;99.90;;;;;;5029070;28;20582;-57
2023/09/25 05:30:05;;;;;;;6.70;3.22;;;9.90;99.90;;;;;;5024370;28;20021;-58
2023/09/25 05:32:34;;;;;;;4.43;3.20;;;9.90;99.90;;;;;;5032113;28;20024;-59
2023/09/25 05:34:59;;;;;;;6.28;2.95;;;9.90;99.90;;;;;;5014521;28;20038;-59
2023/09/25 05:37:25;;;;;;;6.55;3.35;;;9.90;99.90;;;;;;5019795;28;20085;-59
2023/09/25 05:39:51;;;;;;;4.88;2.53;;;9.90;99.90;;;;;;5017712;28;20053;-56
2023/09/25 05:42:16;;;;;;;10.50;3.10;;;9.90;99.90;;;;;;5023946;28;20041;-57
2023/09/25 05:44:42;;;;;;;7.72;3.03;;;9.90;99.90;;;;;;5027959;28;20037;-60
2023/09/25 05:47:07;;;;;;;7.03;3.15;;;10.00;99.90;;;;;;5032698;28;20516;-59
2023/09/25 05:49:33;;;;;;;6.47;3.25;;;10.00;99.90;;;;;;5024567;28;20496;-57
2023/09/25 05:51:58;;;;;;;13.40;3.90;;;10.10;99.90;;;;;;5021861;28;20041;-59
2023/09/25 05:54:24;;;;;;;4.90;3.15;;;10.10;99.90;;;;;;5025619;28;20031;-59
2023/09/25 05:56:49;;;;;;;7.18;3.50;;;10.20;99.90;;;;;;5024988;28;20268;-58
2023/09/25 05:59:15;;;;;;;8.43;3.50;;;10.20;99.90;;;;;;5018381;28;20022;-59
2023/09/25 06:01:42;;;;;;;8.40;2.80;;;10.30;99.90;;;;;;5026275;28;20730;-59
2023/09/25 06:04:08;;;;;;;9.13;3.60;;;10.30;99.90;;;;;;5025837;28;20038;-59
2023/09/25 06:06:33;;;;;;;7.82;3.83;;;10.40;99.90;;;;;;5026352;28;20083;-59
2023/09/25 06:08:59;;;;;;;7.07;3.13;;;10.40;99.90;;;;;;5019664;28;20025;-61
2023/09/25 06:11:25;;;;;;;6.78;3.92;;;10.50;99.90;;;;;;5023217;28;20021;-61
2023/09/25 06:13:50;;;;;;;9.27;3.10;;;10.50;99.90;;;;;;5027866;28;20060;-55
2023/09/25 06:16:16;;;;;;;12.23;3.53;;;10.60;99.90;;;;;;5025934;28;20036;-57
2023/09/25 06:18:43;;;;;;;6.13;3.63;;;10.70;99.90;;;;;;5016969;28;20042;-60
2023/09/25 06:21:12;;;;;;;11.55;3.80;;;10.80;99.90;;;;;;5023947;28;20522;-60
2023/09/25 06:23:39;;;;;;;4.63;3.15;;;10.80;99.90;;;;;;5023378;28;20041;-58
2023/09/25 06:26:06;;;;;;;4.70;3.35;;;10.90;99.90;;;;;;5016881;28;20037;-59
2023/09/25 06:28:32;;;;;;;8.57;3.50;;;11.00;99.90;;;;;;5019556;28;20033;-60
2023/09/25 06:30:58;;;;;;;7.38;3.40;;;11.00;99.90;;;;;;5021814;28;20060;-59
2023/09/25 06:33:25;;;;;;;4.50;2.97;;;11.10;99.90;;;;;;5032680;28;20033;-60
2023/09/25 06:35:51;;;;;;;4.35;2.97;;;11.20;99.90;;;;;;5021892;28;20034;-60
2023/09/25 06:38:17;;;;;;;9.52;3.58;;;11.30;99.90;;;;;;5021836;28;20029;-59
2023/09/25 06:40:46;;;;;;;3.67;2.83;;;11.30;99.90;;;;;;5026234;28;20037;-58
2023/09/25 06:43:13;;;;;;;7.60;3.40;;;11.40;99.90;;;;;;5020876;28;20036;-61
2023/09/25 06:45:43;;;;;;;5.47;2.67;;;11.50;99.90;;;;;;5028953;28;20040;-59
2023/09/25 06:48:08;;;;;;;3.63;2.80;;;11.60;99.90;;;;;;5022870;28;20017;-59
2023/09/25 06:50:34;;;;;;;9.15;2.88;;;11.70;99.90;;;;;;5019828;28;20388;-59
2023/09/25 06:52:59;;;;;;;4.18;2.65;;;11.70;99.90;;;;;;5023598;28;20507;-59
2023/09/25 06:55:25;;;;;;;6.10;2.45;;;11.80;99.90;;;;;;5025426;28;20160;-58
2023/09/25 06:57:50;;;;;;;4.57;2.67;;;11.90;99.90;;;;;;5025513;28;20025;-60
2023/09/25 07:00:17;;;;;;;4.53;2.22;;;12.00;99.90;;;;;;5027102;28;20558;-59
2023/09/25 07:02:43;;;;;;;6.70;2.47;;;12.10;99.90;;;;;;5022932;28;20391;-59
2023/09/25 07:05:09;;;;;;;7.78;2.25;;;12.10;99.90;;;;;;5026559;28;20036;-60
2023/09/25 07:07:36;;;;;;;3.55;2.58;;;12.20;99.90;;;;;;5019702;28;20065;-58
2023/09/25 07:10:03;;;;;;;3.67;2.03;;;12.30;99.90;;;;;;5024476;28;20032;-59
2023/09/25 07:12:30;;;;;;;4.30;2.17;;;12.30;99.90;;;;;;5025802;28;20107;-60
2023/09/25 07:14:56;;;;;;;5.78;2.22;;;12.40;99.90;;;;;;5024311;28;20575;-60
2023/09/25 07:17:22;;;;;;;7.78;3.30;;;12.50;99.90;;;;;;5024995;28;20041;-60
2023/09/25 07:19:52;;;;;;;6.38;3.58;;;12.60;99.90;;;;;;5034286;28;20029;-59
2023/09/25 07:22:20;;;;;;;3.58;2.35;;;12.60;99.90;;;;;;5032457;28;20029;-59
2023/09/25 07:24:45;;;;;;;5.60;3.00;;;12.70;99.90;;;;;;5026427;28;20067;-60
2023/09/25 07:27:11;;;;;;;8.95;3.00;;;12.80;99.90;;;;;;5028995;28;20041;-59
2023/09/25 07:29:40;;;;;;;11.77;3.72;;;12.80;99.90;;;;;;5029811;28;20029;-57
2023/09/25 07:32:05;;;;;;;25.30;5.60;;;12.90;99.90;;;;;;5027898;28;20029;-59
2023/09/25 07:34:31;;;;;;;22.83;4.80;;;13.00;99.90;;;;;;5032410;28;20028;-59
2023/09/25 07:36:57;;;;;;;12.20;3.90;;;13.00;99.90;;;;;;5028339;28;20025;-59
2023/09/25 07:39:23;;;;;;;10.02;3.80;;;13.10;99.90;;;;;;5028374;28;20040;-59
2023/09/25 07:41:52;;;;;;;8.13;3.22;;;13.10;99.90;;;;;;5025414;28;20033;-54
2023/09/25 07:44:18;;;;;;;6.10;2.70;;;13.20;99.90;;;;;;5028411;28;20084;-59
2023/09/25 07:46:44;;;;;;;4.78;2.17;;;13.30;99.90;;;;;;5029753;28;20025;-61
2023/09/25 07:49:10;;;;;;;2.38;1.98;;;13.30;99.90;;;;;;5030960;28;20025;-59
2023/09/25 07:51:36;;;;;;;4.90;2.25;;;13.40;99.90;;;;;;5025055;28;20022;-57
2023/09/25 07:54:03;;;;;;;6.10;2.05;;;13.50;99.90;;;;;;5034462;28;20030;-58
2023/09/25 07:56:30;;;;;;;6.40;2.75;;;13.50;99.90;;;;;;5031856;28;20100;-58
2023/09/25 07:58:55;;;;;;;3.05;2.05;;;13.70;99.90;;;;;;5029334;28;20028;-60
2023/09/25 08:01:22;;;;;;;5.30;2.70;;;13.80;99.90;;;;;;5026623;28;20038;-57
2023/09/25 08:03:51;;;;;;;4.50;2.30;;;13.90;99.90;;;;;;5029365;28;20090;-61
2023/09/25 08:06:19;;;;;;;5.00;2.45;;;14.00;99.90;;;;;;5025094;28;20018;-60
2023/09/25 08:08:45;;;;;;;5.03;2.35;;;14.10;99.90;;;;;;5029797;28;20500;-58
2023/09/25 08:11:10;;;;;;;5.55;2.00;;;14.20;99.90;;;;;;5031012;28;20018;-57
2023/09/25 08:13:36;;;;;;;4.05;1.65;;;14.40;99.90;;;;;;5021546;28;20029;-59
2023/09/25 08:16:05;;;;;;;3.80;1.70;;;14.50;99.90;;;;;;5028645;28;20087;-58
2023/09/25 08:18:31;;;;;;;2.55;1.92;;;14.60;99.90;;;;;;5026911;28;20095;-58
2023/09/25 08:20:56;;;;;;;5.78;1.67;;;14.70;99.90;;;;;;5027011;28;20030;-59
2023/09/25 08:23:22;;;;;;;6.22;2.00;;;14.80;99.90;;;;;;5020572;28;20033;-60
2023/09/25 08:25:48;;;;;;;4.00;1.88;;;15.00;99.90;;;;;;5026551;28;20033;-59
2023/09/25 08:28:14;;;;;;;3.15;1.58;;;15.10;99.90;;;;;;5026201;28;20427;-61
2023/09/25 08:30:40;;;;;;;8.02;1.95;;;15.10;99.90;;;;;;5025218;28;20030;-60
2023/09/25 08:33:06;;;;;;;6.70;1.70;;;15.20;99.90;;;;;;5023847;28;20021;-60
2023/09/25 08:35:31;;;;;;;6.82;1.75;;;15.30;99.90;;;;;;5023052;28;20033;-60
2023/09/25 08:37:57;;;;;;;3.97;1.77;;;15.40;99.90;;;;;;5024085;28;20083;-60
2023/09/25 08:40:22;;;;;;;6.35;1.65;;;15.50;99.90;;;;;;5020965;28;20549;-60
2023/09/25 08:42:51;;;;;;;3.22;1.70;;;15.60;99.90;;;;;;5029035;28;20032;-60
2023/09/25 08:45:20;;;;;;;2.55;1.80;;;15.70;99.90;;;;;;5027532;28;20080;-59
2023/09/25 08:47:45;;;;;;;5.53;1.70;;;15.70;99.90;;;;;;5023439;28;20050;-58
2023/09/25 08:50:12;;;;;;;5.22;2.25;;;15.80;99.90;;;;;;5028425;28;20056;-58
2023/09/25 08:52:39;;;;;;;3.72;2.28;;;15.90;99.90;;;;;;5029919;28;20036;-58
2023/09/25 08:55:06;;;;;;;7.63;2.53;;;15.90;99.90;;;;;;5028704;28;20407;-60
2023/09/25 08:57:32;;;;;;;9.73;1.98;;;16.00;99.90;;;;;;5028962;28;20521;-60
2023/09/25 09:00:11;;;;;;;7.00;1.80;;;16.10;99.90;;;;;;5032039;28;20092;-60
2023/09/25 09:02:40;;;;;;;7.80;2.30;;;16.20;99.90;;;;;;5024643;28;20120;-59
2023/09/25 09:05:13;;;;;;;4.18;1.63;;;16.30;99.90;;;;;;5024845;28;20078;-58
2023/09/25 09:08:00;;;;;;;3.42;1.67;;;16.40;99.90;;;;;;5030043;28;20105;-59
2023/09/25 09:10:33;;;;;;;6.35;2.20;;;16.50;99.90;;;;;;5029455;28;20032;-59
2023/09/25 09:12:59;;;;;;;4.40;2.28;;;16.70;99.90;;;;;;5023796;28;20112;-59
2023/09/25 09:15:29;;;;;;;9.60;2.30;;;16.80;99.90;;;;;;5026877;28;20109;-58
2023/09/25 09:17:56;;;;;;;6.53;2.25;;;16.90;99.90;;;;;;5027340;28;20025;-59
2023/09/25 09:20:42;;;;;;;3.83;2.10;;;17.00;99.90;;;;;;5025693;28;20033;-60
2023/09/25 09:23:09;;;;;;;5.38;1.95;;;17.20;99.90;;;;;;5030802;28;20143;-58
2023/09/25 09:25:35;;;;;;;8.73;2.10;;;17.30;99.90;;;;;;5026294;28;20032;-57
2023/09/25 09:28:03;;;;;;;9.80;5.18;;;17.30;99.90;;;;;;5026336;28;20028;-55
2023/09/25 09:30:29;;;;;;;4.07;1.70;;;17.50;99.90;;;;;;5024111;28;20017;-59
2023/09/25 09:32:55;;;;;;;4.10;1.50;;;17.60;99.90;;;;;;5024648;28;20543;-58
2023/09/25 09:35:24;;;;;;;6.85;1.70;;;17.70;99.90;;;;;;5023488;28;20037;-60
2023/09/25 09:37:54;;;;;;;5.82;2.05;;;17.80;99.90;;;;;;5027956;28;20050;-60
2023/09/25 09:40:21;;;;;;;7.07;1.90;;;17.90;99.90;;;;;;5021829;28;20033;-61
2023/09/25 09:42:51;;;;;;;2.55;1.83;;;18.00;99.90;;;;;;5020043;28;20514;-58
2023/09/25 09:45:20;;;;;;;5.15;1.60;;;18.10;99.90;;;;;;5010683;28;20036;-60
2023/09/25 09:47:48;;;;;;;3.85;1.92;;;18.30;99.90;;;;;;5026563;28;20021;-60
2023/09/25 09:50:18;;;;;;;2.63;1.38;;;18.40;99.90;;;;;;5018824;28;20108;-59
2023/09/25 09:52:45;;;;;;;3.28;1.33;;;18.40;99.90;;;;;;5020173;28;20132;-58
2023/09/25 09:55:14;;;;;;;3.65;1.65;;;18.50;99.90;;;;;;5020296;28;20021;-60
2023/09/25 09:57:39;;;;;;;7.95;1.60;;;18.70;99.90;;;;;;5022102;28;20025;-61
2023/09/25 10:00:07;;;;;;;4.38;1.52;;;18.80;99.90;;;;;;5019845;28;20097;-59
2023/09/25 10:02:34;;;;;;;3.22;1.33;;;19.00;99.90;;;;;;5020587;28;20032;-57
2023/09/25 10:05:00;;;;;;;6.63;1.83;;;19.20;99.90;;;;;;5020343;28;20499;-59
2023/09/25 10:07:27;;;;;;;2.63;1.40;;;19.20;99.90;;;;;;5015801;28;20026;-59
2023/09/25 10:10:06;;;;;;;5.28;1.80;;;19.40;99.90;;;;;;5015665;28;20053;-60
2023/09/25 10:12:48;;;;;;;1.75;1.20;;;19.50;99.90;;;;;;5012386;28;20133;-57
2023/09/25 10:15:21;;;;;;;5.05;1.80;;;19.70;99.90;;;;;;5023992;28;20032;-59
2023/09/25 10:17:48;;;;;;;3.83;1.35;;;19.80;99.90;;;;;;5016095;28;20064;-56
2023/09/25 10:20:40;;;;;;;2.22;1.58;;;20.00;99.90;;;;;;5012267;28;21182;-59
2023/09/25 10:23:06;;;;;;;3.65;1.15;;;20.00;99.90;;;;;;5014778;28;20026;-57
2023/09/25 10:25:45;;;;;;;3.20;1.70;;;;;;;;;;5017898;28;20064;-58
2023/09/25 10:28:18;;;;;;;5.45;1.60;;;;;;;;;;5011686;28;20034;-59
2023/09/25 10:30:44;;;;;;;4.30;1.85;;;;;;;;;;5014637;28;20480;-58
2023/09/25 10:33:10;;;;;;;3.47;1.63;;;;;;;;;;5012829;28;20025;-60
2023/09/25 10:35:36;;;;;;;10.50;2.10;;;;;;;;;;5015915;28;20037;-59
2023/09/25 10:38:09;;;;;;;5.03;1.85;;;;;;;;;;5018751;28;20060;-59
2023/09/25 10:40:39;;;;;;;3.03;1.30;;;;;;;;;;5016713;28;20900;-57
2023/09/25 10:43:05;;;;;;;3.55;1.48;;;;;;;;;;5015841;28;20408;-55
2023/09/25 10:45:32;;;;;;;2.00;1.30;;;;;;;;;;5013414;28;20044;-56
2023/09/25 10:47:58;;;;;;;3.28;1.10;;;;;;;;;;5030908;28;20052;-57
2023/09/25 10:50:24;;;;;;;7.05;1.67;;;;;;;;;;5016810;28;20021;-56
2023/09/25 10:52:50;;;;;;;6.93;1.38;;;;;;;;;;5019345;28;20027;-57
2023/09/25 10:55:16;;;;;;;7.40;1.52;;;;;;;;;;5015850;28;20030;-60
2023/09/25 10:57:42;;;;;;;7.22;1.40;;;20.10;99.90;;;;;;5015728;28;20030;-59
2023/09/25 11:00:11;;;;;;;5.00;1.33;;;21.40;99.90;;;;;;5030940;28;20028;-58
2023/09/25 11:02:37;;;;;;;3.00;1.30;;;21.50;99.90;;;;;;5021489;28;20033;-57
2023/09/25 11:05:03;;;;;;;3.15;1.50;;;21.50;99.90;;;;;;5021458;28;20080;-59
2023/09/25 11:07:29;;;;;;;2.67;1.50;;;21.50;99.90;;;;;;5019313;28;20085;-59
2023/09/25 11:09:58;;;;;;;3.67;1.55;;;21.50;99.90;;;;;;5016012;28;20026;-59
2023/09/25 11:12:24;;;;;;;3.45;1.30;;;21.60;99.90;;;;;;5020424;28;20103;-59
2023/09/25 11:14:52;;;;;;;5.82;1.48;;;21.40;99.90;;;;;;5014629;28;20101;-60
2023/09/25 11:17:17;;;;;;;4.13;1.83;;;21.70;99.90;;;;;;5024642;28;20063;-60
2023/09/25 11:19:46;;;;;;;4.03;1.40;;;21.70;99.90;;;;;;5014878;28;20463;-60
2023/09/25 11:22:11;;;;;;;4.32;1.38;;;21.90;99.90;;;;;;5018459;28;20037;-60
2023/09/25 11:24:37;;;;;;;3.90;1.85;;;22.00;99.90;;;;;;5011011;28;20143;-59
2023/09/25 11:27:09;;;;;;;4.32;1.20;;;22.30;99.90;;;;;;5031361;28;20030;-57
2023/09/25 11:29:35;;;;;;;5.85;1.63;;;22.50;99.90;;;;;;5026672;28;20879;-60
2023/09/25 11:32:02;;;;;;;2.30;1.20;;;22.60;99.90;;;;;;5026761;28;20067;-60
2023/09/25 11:34:28;;;;;;;2.40;1.45;;;22.80;99.90;;;;;;5019265;28;20021;-58
2023/09/25 11:36:54;;;;;;;3.13;1.42;;;22.70;99.90;;;;;;5025105;28;20110;-57
2023/09/25 11:39:19;;;;;;;5.57;1.40;;;22.90;99.90;;;;;;5023540;28;20022;-51
2023/09/25 11:41:46;;;;;;;6.45;1.35;;;23.00;99.90;;;;;;5026145;28;20038;-59
2023/09/25 11:44:15;;;;;;;3.35;1.85;;;23.00;99.90;;;;;;5028091;28;20036;-60
2023/09/25 11:46:45;;;;;;;2.20;1.30;;;23.20;99.90;;;;;;5020731;28;20030;-61
2023/09/25 11:49:13;;;;;;;3.45;1.40;;;23.10;99.90;;;;;;5029695;28;20096;-59
2023/09/25 11:51:39;;;;;;;3.70;1.30;;;23.20;99.90;;;;;;5023714;28;20053;-62
2023/09/25 11:54:05;;;;;;;5.03;1.33;;;23.40;99.90;;;;;;5027250;28;20483;-60
2023/09/25 11:56:31;;;;;;;3.28;1.55;;;23.50;99.60;;;;;;5017982;28;20029;-56
2023/09/25 11:58:56;;;;;;;3.85;1.73;;;23.60;99.80;;;;;;5025826;28;20034;-60
2023/09/25 12:01:22;;;;;;;2.45;1.27;;;23.70;99.50;;;;;;5025910;28;20029;-60
2023/09/25 12:03:47;;;;;;;2.20;1.35;;;23.60;99.90;;;;;;5025228;28;20030;-61
2023/09/25 12:06:13;;;;;;;6.47;1.30;;;23.60;99.90;;;;;;5028126;28;20025;-60
2023/09/25 12:08:38;;;;;;;2.22;1.60;;;23.80;99.90;;;;;;5029828;28;20387;-58
2023/09/25 12:11:04;;;;;;;3.17;1.70;;;23.90;99.20;;;;;;5028832;28;20134;-59
2023/09/25 12:13:30;;;;;;;3.47;1.45;;;23.80;98.20;;;;;;5025233;28;20076;-57
2023/09/25 12:15:55;;;;;;;3.50;1.38;;;23.80;99.70;;;;;;5030872;28;20056;-61
2023/09/25 12:18:23;;;;;;;4.07;1.50;;;24.00;99.50;;;;;;5033458;28;20037;-60
2023/09/25 12:20:49;;;;;;;3.38;1.50;;;23.90;99.90;;;;;;5024980;28;20049;-58
2023/09/25 12:23:14;;;;;;;3.22;1.45;;;24.00;99.90;;;;;;5029881;28;20020;-59
2023/09/25 12:25:40;;;;;;;4.47;1.85;;;24.10;98.60;;;;;;5031817;28;20086;-61
2023/09/25 12:28:06;;;;;;;4.70;2.25;;;24.20;97.50;;;;;;5028617;28;20499;-61
2023/09/25 12:30:31;;;;;;;3.17;1.42;;;24.20;98.80;;;;;;5021068;28;20147;-59
2023/09/25 12:32:57;;;;;;;3.20;1.55;;;24.30;97.50;;;;;;5023761;28;20459;-60
2023/09/25 12:35:22;;;;;;;3.28;1.73;;;24.00;99.90;;;;;;5021581;28;20037;-61
2023/09/25 12:37:52;;;;;;;8.82;1.73;;;24.00;97.10;;;;;;5020776;28;20037;-52
2023/09/25 12:40:18;;;;;;;7.53;1.63;;;24.20;98.90;;;;;;5022340;28;20104;-58
2023/09/25 12:42:44;;;;;;;2.83;1.40;;;24.10;99.90;;;;;;5023237;28;20104;-60
2023/09/25 12:45:11;;;;;;;14.07;1.50;;;24.50;99.90;;;;;;5022369;28;20112;-60
2023/09/25 12:47:37;;;;;;;7.15;1.65;;;24.90;98.30;;;;;;5019656;28;20026;-60
2023/09/25 12:50:03;;;;;;;9.82;1.58;;;24.80;99.90;;;;;;5036107;28;20467;-59
2023/09/25 12:52:31;;;;;;;4.00;1.58;;;24.60;97.00;;;;;;5025207;28;20121;-60